createdAt,value
2018-11-21T00:00:01.180Z,766.18
2018-11-21T00:00:05.598Z,766.17
2018-11-21T00:00:09.911Z,766.14
2018-11-21T00:00:14.219Z,766.15
2018-11-21T00:00:18.522Z,766.12
2018-11-21T00:00:22.866Z,766.18
2018-11-21T00:00:27.061Z,766.15
2018-11-21T00:00:31.364Z,766.14
2018-11-21T00:00:35.563Z,766.14
2018-11-21T00:00:39.871Z,766.17
2018-11-21T00:00:44.173Z,766.15
2018-11-21T00:00:48.376Z,766.13
2018-11-21T00:00:52.686Z,766.16
2018-11-21T00:00:56.998Z,766.17
2018-11-21T00:01:01.303Z,766.13
2018-11-21T00:01:05.617Z,766.14
2018-11-21T00:01:09.926Z,766.15
2018-11-21T00:01:14.234Z,766.15
2018-11-21T00:01:18.537Z,766.13
2018-11-21T00:01:22.841Z,766.14
2018-11-21T00:01:27.146Z,766.14
2018-11-21T00:01:31.452Z,766.12
2018-11-21T00:01:35.668Z,766.11
2018-11-21T00:01:39.977Z,766.15
2018-11-21T00:01:44.202Z,766.12
2018-11-21T00:01:48.509Z,766.13
2018-11-21T00:01:52.709Z,766.1
2018-11-21T00:01:57.021Z,766.12
2018-11-21T00:02:01.229Z,766.1
2018-11-21T00:02:05.538Z,766.09
2018-11-21T00:02:09.852Z,766.12
2018-11-21T00:02:14.209Z,766.09
2018-11-21T00:02:18.520Z,766.09
2018-11-21T00:02:22.834Z,766.11
2018-11-21T00:02:28.057Z,766.07
2018-11-21T00:02:32.374Z,766.12
2018-11-21T00:02:36.718Z,766.05
2018-11-21T00:02:41.033Z,766.07
2018-11-21T00:02:45.339Z,766.1
2018-11-21T00:02:49.644Z,766.11
2018-11-21T00:02:53.843Z,766.1
2018-11-21T00:02:58.153Z,766.08
2018-11-21T00:03:02.457Z,766.08
2018-11-21T00:03:06.779Z,766.08
2018-11-21T00:03:11.095Z,766.06
2018-11-21T00:03:15.415Z,766.13
2018-11-21T00:03:19.732Z,766.06
2018-11-21T00:03:24.041Z,766.08
2018-11-21T00:03:28.241Z,766.08
2018-11-21T00:03:32.546Z,766.07
2018-11-21T00:03:36.848Z,766.05
2018-11-21T00:03:41.158Z,766.06
2018-11-21T00:03:45.365Z,766.06
2018-11-21T00:03:49.675Z,766.06
2018-11-21T00:03:53.872Z,766.06
2018-11-21T00:03:58.177Z,766.01
2018-11-21T00:04:02.479Z,766.02
2018-11-21T00:04:06.788Z,766.03
2018-11-21T00:04:11.097Z,766.03
2018-11-21T00:04:15.408Z,766.02
2018-11-21T00:04:19.728Z,766.02
2018-11-21T00:04:24.034Z,766.01
2018-11-21T00:04:28.339Z,766.02
2018-11-21T00:04:32.647Z,766.01
2018-11-21T00:04:36.953Z,765.99
2018-11-21T00:04:41.256Z,766.02
2018-11-21T00:04:45.565Z,765.99
2018-11-21T00:04:49.869Z,766.01
2018-11-21T00:04:54.192Z,765.96
2018-11-21T00:04:58.389Z,765.98
2018-11-21T00:05:02.744Z,765.99
2018-11-21T00:05:06.952Z,765.98
2018-11-21T00:05:11.259Z,765.96
2018-11-21T00:05:15.570Z,766.01
2018-11-21T00:05:19.883Z,765.96
2018-11-21T00:05:24.187Z,765.98
2018-11-21T00:05:28.492Z,765.97
2018-11-21T00:05:32.838Z,765.96
2018-11-21T00:05:37.148Z,765.95
2018-11-21T00:05:41.456Z,765.97
2018-11-21T00:05:45.768Z,766
2018-11-21T00:05:50.073Z,765.91
2018-11-21T00:05:54.383Z,765.97
2018-11-21T00:05:58.685Z,765.99
2018-11-21T00:06:03.005Z,765.97
2018-11-21T00:06:07.306Z,766.01
2018-11-21T00:06:11.668Z,766.01
2018-11-21T00:06:15.977Z,766.01
2018-11-21T00:06:20.174Z,765.97
2018-11-21T00:06:24.373Z,765.97
2018-11-21T00:06:28.682Z,765.98
2018-11-21T00:06:32.995Z,766.01
2018-11-21T00:06:37.308Z,765.96
2018-11-21T00:06:41.609Z,765.96
2018-11-21T00:06:45.916Z,765.95
2018-11-21T00:06:50.226Z,765.95
2018-11-21T00:06:54.529Z,765.92
2018-11-21T00:06:59.007Z,765.96
2018-11-21T00:07:03.354Z,765.95
2018-11-21T00:07:07.668Z,765.93
2018-11-21T00:07:11.982Z,765.95
2018-11-21T00:07:16.308Z,765.94
2018-11-21T00:07:20.646Z,765.97
2018-11-21T00:07:24.955Z,765.95
2018-11-21T00:07:29.262Z,765.94
2018-11-21T00:07:33.455Z,765.95
2018-11-21T00:07:37.799Z,765.9
2018-11-21T00:07:42.108Z,765.92
2018-11-21T00:07:46.315Z,765.93
2018-11-21T00:07:50.622Z,765.92
2018-11-21T00:07:54.927Z,765.89
2018-11-21T00:07:59.227Z,765.9
2018-11-21T00:08:03.531Z,765.91
2018-11-21T00:08:07.740Z,765.92
2018-11-21T00:08:12.055Z,765.9
2018-11-21T00:08:16.372Z,765.92
2018-11-21T00:08:20.692Z,765.89
2018-11-21T00:08:25.010Z,765.89
2018-11-21T00:08:29.322Z,765.91
2018-11-21T00:08:33.629Z,765.9
2018-11-21T00:08:37.931Z,765.89
2018-11-21T00:08:42.240Z,765.89
2018-11-21T00:08:46.545Z,765.89
2018-11-21T00:08:50.898Z,765.92
2018-11-21T00:08:55.209Z,765.91
2018-11-21T00:08:59.521Z,765.92
2018-11-21T00:09:03.873Z,765.95
2018-11-21T00:09:08.188Z,765.86
2018-11-21T00:09:12.396Z,765.85
2018-11-21T00:09:16.712Z,765.88
2018-11-21T00:09:21.012Z,765.85
2018-11-21T00:09:25.316Z,765.84
2018-11-21T00:09:29.626Z,765.89
2018-11-21T00:09:33.936Z,765.91
2018-11-21T00:09:38.246Z,765.93
2018-11-21T00:09:42.544Z,765.91
2018-11-21T00:09:46.848Z,765.9
2018-11-21T00:09:51.156Z,765.9
2018-11-21T00:09:55.464Z,765.89
2018-11-21T00:09:59.771Z,765.91
2018-11-21T00:10:04.079Z,765.9
2018-11-21T00:10:08.499Z,765.91
2018-11-21T00:10:12.809Z,765.88
2018-11-21T00:10:17.116Z,765.88
2018-11-21T00:10:21.417Z,765.91
2018-11-21T00:10:25.730Z,765.87
2018-11-21T00:10:29.940Z,765.84
2018-11-21T00:10:34.255Z,765.88
2018-11-21T00:10:38.552Z,765.91
2018-11-21T00:10:42.856Z,765.84
2018-11-21T00:10:47.164Z,765.84
2018-11-21T00:10:51.468Z,765.86
2018-11-21T00:10:55.776Z,765.85
2018-11-21T00:11:00.084Z,765.87
2018-11-21T00:11:04.388Z,765.86
2018-11-21T00:11:08.694Z,765.85
2018-11-21T00:11:12.891Z,765.83
2018-11-21T00:11:17.201Z,765.87
2018-11-21T00:11:21.405Z,765.87
2018-11-21T00:11:25.718Z,765.87
2018-11-21T00:11:30.023Z,765.85
2018-11-21T00:11:34.340Z,765.89
2018-11-21T00:11:38.639Z,765.88
2018-11-21T00:11:42.939Z,765.86
2018-11-21T00:11:47.138Z,765.88
2018-11-21T00:11:51.482Z,765.88
2018-11-21T00:11:55.792Z,765.85
2018-11-21T00:11:59.999Z,765.88
2018-11-21T00:12:04.311Z,765.88
2018-11-21T00:12:08.615Z,765.91
2018-11-21T00:12:12.922Z,765.88
2018-11-21T00:12:17.226Z,765.88
2018-11-21T00:12:21.530Z,765.88
2018-11-21T00:12:25.842Z,765.85
2018-11-21T00:12:30.148Z,765.87
2018-11-21T00:12:34.459Z,765.88
2018-11-21T00:12:38.803Z,765.89
2018-11-21T00:12:43.101Z,765.88
2018-11-21T00:12:47.411Z,765.9
2018-11-21T00:12:51.725Z,765.9
2018-11-21T00:12:56.036Z,765.87
2018-11-21T00:13:00.348Z,765.9
2018-11-21T00:13:04.665Z,765.87
2018-11-21T00:13:08.980Z,765.89
2018-11-21T00:13:13.299Z,765.9
2018-11-21T00:13:17.499Z,765.89
2018-11-21T00:13:21.701Z,765.92
2018-11-21T00:13:26.012Z,765.91
2018-11-21T00:13:30.318Z,765.88
2018-11-21T00:13:34.521Z,765.91
2018-11-21T00:13:38.824Z,765.9
2018-11-21T00:13:43.025Z,765.91
2018-11-21T00:13:47.347Z,765.91
2018-11-21T00:13:51.649Z,765.9
2018-11-21T00:13:55.953Z,765.87
2018-11-21T00:14:00.255Z,765.92
2018-11-21T00:14:04.720Z,765.88
2018-11-21T00:14:09.028Z,765.91
2018-11-21T00:14:13.245Z,765.92
2018-11-21T00:14:17.579Z,765.9
2018-11-21T00:14:21.893Z,765.89
2018-11-21T00:14:26.192Z,765.9
2018-11-21T00:14:30.502Z,765.91
2018-11-21T00:14:34.809Z,765.89
2018-11-21T00:14:39.114Z,765.92
2018-11-21T00:14:43.317Z,765.9
2018-11-21T00:14:47.632Z,765.91
2018-11-21T00:14:51.947Z,765.92
2018-11-21T00:14:56.251Z,765.93
2018-11-21T00:15:00.556Z,765.9
2018-11-21T00:15:04.874Z,765.89
2018-11-21T00:15:09.196Z,765.88
2018-11-21T00:15:13.521Z,765.9
2018-11-21T00:15:17.833Z,765.93
2018-11-21T00:15:22.133Z,765.89
2018-11-21T00:15:26.435Z,765.93
2018-11-21T00:15:30.735Z,765.9
2018-11-21T00:15:35.044Z,765.92
2018-11-21T00:15:39.360Z,765.92
2018-11-21T00:15:43.667Z,765.92
2018-11-21T00:15:47.972Z,765.92
2018-11-21T00:15:52.276Z,765.93
2018-11-21T00:15:56.589Z,765.92
2018-11-21T00:16:00.893Z,765.92
2018-11-21T00:16:05.095Z,765.95
2018-11-21T00:16:09.311Z,765.9
2018-11-21T00:16:13.661Z,765.89
2018-11-21T00:16:17.974Z,765.9
2018-11-21T00:16:22.279Z,765.91
2018-11-21T00:16:26.583Z,765.91
2018-11-21T00:16:30.887Z,765.9
2018-11-21T00:16:35.183Z,765.92
2018-11-21T00:16:39.487Z,765.94
2018-11-21T00:16:43.792Z,765.96
2018-11-21T00:16:48.136Z,765.94
2018-11-21T00:16:52.487Z,765.95
2018-11-21T00:16:56.796Z,765.95
2018-11-21T00:17:01.096Z,765.94
2018-11-21T00:17:05.422Z,765.95
2018-11-21T00:17:09.739Z,765.92
2018-11-21T00:17:14.061Z,765.97
2018-11-21T00:17:18.375Z,765.91
2018-11-21T00:17:22.675Z,765.93
2018-11-21T00:17:26.979Z,765.92
2018-11-21T00:17:31.278Z,765.9
2018-11-21T00:17:35.582Z,765.95
2018-11-21T00:17:39.892Z,765.92
2018-11-21T00:17:44.200Z,765.94
2018-11-21T00:17:48.496Z,765.88
2018-11-21T00:17:52.844Z,765.89
2018-11-21T00:17:57.147Z,765.89
2018-11-21T00:18:01.451Z,765.89
2018-11-21T00:18:05.807Z,765.93
2018-11-21T00:18:10.112Z,765.92
2018-11-21T00:18:14.425Z,765.95
2018-11-21T00:18:18.730Z,765.94
2018-11-21T00:18:23.042Z,765.94
2018-11-21T00:18:27.345Z,765.95
2018-11-21T00:18:31.658Z,765.95
2018-11-21T00:18:35.962Z,765.94
2018-11-21T00:18:40.269Z,765.97
2018-11-21T00:18:44.620Z,765.96
2018-11-21T00:18:48.926Z,765.94
2018-11-21T00:18:53.228Z,765.95
2018-11-21T00:19:04.302Z,765.89
2018-11-21T00:19:08.613Z,765.9
2018-11-21T00:19:12.922Z,765.9
2018-11-21T00:19:17.226Z,765.92
2018-11-21T00:19:21.537Z,765.87
2018-11-21T00:19:25.847Z,765.95
2018-11-21T00:19:30.050Z,765.92
2018-11-21T00:19:34.356Z,765.92
2018-11-21T00:19:38.665Z,765.93
2018-11-21T00:19:42.974Z,765.96
2018-11-21T00:19:47.280Z,765.94
2018-11-21T00:19:51.591Z,765.92
2018-11-21T00:19:55.902Z,765.96
2018-11-21T00:20:00.208Z,765.92
2018-11-21T00:20:04.416Z,765.94
2018-11-21T00:20:08.730Z,765.94
2018-11-21T00:20:12.929Z,765.93
2018-11-21T00:20:17.147Z,765.93
2018-11-21T00:20:21.468Z,765.9
2018-11-21T00:20:25.775Z,765.93
2018-11-21T00:20:30.082Z,765.91
2018-11-21T00:20:34.389Z,765.93
2018-11-21T00:20:38.697Z,765.94
2018-11-21T00:20:43.009Z,765.94
2018-11-21T00:20:47.358Z,765.95
2018-11-21T00:20:51.674Z,765.89
2018-11-21T00:20:55.987Z,765.94
2018-11-21T00:21:00.299Z,765.9
2018-11-21T00:21:04.654Z,765.87
2018-11-21T00:21:08.971Z,765.9
2018-11-21T00:21:13.286Z,765.89
2018-11-21T00:21:17.583Z,765.91
2018-11-21T00:21:21.886Z,765.92
2018-11-21T00:21:26.209Z,765.93
2018-11-21T00:21:30.519Z,765.94
2018-11-21T00:21:34.715Z,765.93
2018-11-21T00:21:39.075Z,765.96
2018-11-21T00:21:43.382Z,765.96
2018-11-21T00:21:47.696Z,765.96
2018-11-21T00:21:52.008Z,765.97
2018-11-21T00:21:56.313Z,765.97
2018-11-21T00:22:00.616Z,765.96
2018-11-21T00:22:04.929Z,765.96
2018-11-21T00:22:09.230Z,765.94
2018-11-21T00:22:13.542Z,765.95
2018-11-21T00:22:17.891Z,765.99
2018-11-21T00:22:22.198Z,766.01
2018-11-21T00:22:26.429Z,766.02
2018-11-21T00:22:30.733Z,765.98
2018-11-21T00:22:35.033Z,766.02
2018-11-21T00:22:39.354Z,766.01
2018-11-21T00:22:43.657Z,766.02
2018-11-21T00:22:47.963Z,765.98
2018-11-21T00:22:52.271Z,766
2018-11-21T00:22:56.571Z,765.99
2018-11-21T00:23:00.891Z,766.06
2018-11-21T00:23:05.210Z,766.09
2018-11-21T00:23:09.517Z,766.09
2018-11-21T00:23:13.840Z,766.11
2018-11-21T00:23:18.144Z,766.11
2018-11-21T00:23:22.452Z,766.13
2018-11-21T00:23:26.755Z,766.14
2018-11-21T00:23:31.054Z,766.12
2018-11-21T00:23:35.364Z,766.14
2018-11-21T00:23:39.682Z,766.15
2018-11-21T00:23:43.989Z,766.14
2018-11-21T00:23:48.292Z,766.15
2018-11-21T00:23:52.593Z,766.16
2018-11-21T00:23:56.893Z,766.13
2018-11-21T00:24:01.251Z,766.17
2018-11-21T00:24:05.562Z,766.16
2018-11-21T00:24:09.879Z,766.13
2018-11-21T00:24:14.188Z,766.16
2018-11-21T00:24:18.491Z,766.17
2018-11-21T00:24:22.799Z,766.19
2018-11-21T00:24:27.120Z,766.18
2018-11-21T00:24:31.437Z,766.19
2018-11-21T00:24:35.745Z,766.19
2018-11-21T00:24:40.050Z,766.21
2018-11-21T00:24:44.350Z,766.2
2018-11-21T00:24:48.665Z,766.19
2018-11-21T00:24:52.967Z,766.23
2018-11-21T00:24:57.268Z,766.24
2018-11-21T00:25:01.575Z,766.23
2018-11-21T00:25:05.991Z,766.22
2018-11-21T00:25:10.312Z,766.23
2018-11-21T00:25:14.625Z,766.24
2018-11-21T00:25:18.983Z,766.2
2018-11-21T00:25:23.291Z,766.23
2018-11-21T00:25:27.600Z,766.25
2018-11-21T00:25:31.796Z,766.26
2018-11-21T00:25:36.113Z,766.26
2018-11-21T00:25:40.419Z,766.26
2018-11-21T00:25:44.720Z,766.27
2018-11-21T00:25:49.024Z,766.28
2018-11-21T00:25:53.331Z,766.31
2018-11-21T00:25:57.642Z,766.28
2018-11-21T00:26:01.956Z,766.33
2018-11-21T00:26:06.267Z,766.28
2018-11-21T00:26:10.627Z,766.29
2018-11-21T00:26:14.931Z,766.24
2018-11-21T00:26:19.244Z,766.3
2018-11-21T00:26:23.553Z,766.27
2018-11-21T00:26:27.857Z,766.3
2018-11-21T00:26:32.171Z,766.27
2018-11-21T00:26:36.374Z,766.3
2018-11-21T00:26:40.680Z,766.27
2018-11-21T00:26:44.993Z,766.26
2018-11-21T00:26:49.294Z,766.26
2018-11-21T00:26:53.597Z,766.28
2018-11-21T00:26:57.907Z,766.26
2018-11-21T00:27:02.226Z,766.28
2018-11-21T00:27:06.532Z,766.28
2018-11-21T00:27:10.836Z,766.3
2018-11-21T00:27:15.162Z,766.3
2018-11-21T00:27:19.475Z,766.35
2018-11-21T00:27:23.789Z,766.33
2018-11-21T00:27:28.091Z,766.31
2018-11-21T00:27:32.395Z,766.3
2018-11-21T00:27:36.716Z,766.38
2018-11-21T00:27:41.016Z,766.3
2018-11-21T00:27:45.317Z,766.31
2018-11-21T00:27:49.618Z,766.32
2018-11-21T00:27:53.946Z,766.3
2018-11-21T00:27:58.254Z,766.34
2018-11-21T00:28:02.455Z,766.34
2018-11-21T00:28:06.763Z,766.34
2018-11-21T00:28:11.063Z,766.39
2018-11-21T00:28:15.374Z,766.35
2018-11-21T00:28:19.681Z,766.33
2018-11-21T00:28:23.988Z,766.36
2018-11-21T00:28:28.290Z,766.36
2018-11-21T00:28:32.594Z,766.38
2018-11-21T00:28:36.900Z,766.4
2018-11-21T00:28:41.207Z,766.39
2018-11-21T00:28:45.516Z,766.35
2018-11-21T00:28:49.822Z,766.36
2018-11-21T00:28:54.031Z,766.38
2018-11-21T00:28:58.339Z,766.4
2018-11-21T00:29:02.656Z,766.38
2018-11-21T00:29:06.855Z,766.34
2018-11-21T00:29:11.162Z,766.4
2018-11-21T00:29:15.470Z,766.41
2018-11-21T00:29:19.787Z,766.32
2018-11-21T00:29:24.096Z,766.33
2018-11-21T00:29:28.401Z,766.32
2018-11-21T00:29:32.704Z,766.36
2018-11-21T00:29:37.010Z,766.34
2018-11-21T00:29:41.362Z,766.31
2018-11-21T00:29:45.665Z,766.33
2018-11-21T00:29:49.971Z,766.3
2018-11-21T00:29:54.269Z,766.26
2018-11-21T00:29:58.578Z,766.32
2018-11-21T00:30:02.825Z,766.32
2018-11-21T00:30:07.040Z,766.27
2018-11-21T00:30:11.361Z,766.27
2018-11-21T00:30:15.565Z,766.27
2018-11-21T00:30:19.885Z,766.27
2018-11-21T00:30:24.195Z,766.26
2018-11-21T00:30:28.514Z,766.28
2018-11-21T00:30:32.827Z,766.28
2018-11-21T00:30:37.033Z,766.24
2018-11-21T00:30:41.342Z,766.23
2018-11-21T00:30:45.659Z,766.23
2018-11-21T00:30:49.962Z,766.27
2018-11-21T00:30:54.265Z,766.29
2018-11-21T00:30:58.623Z,766.31
2018-11-21T00:31:02.836Z,766.26
2018-11-21T00:31:07.190Z,766.23
2018-11-21T00:31:11.504Z,766.29
2018-11-21T00:31:15.806Z,766.21
2018-11-21T00:31:20.163Z,766.25
2018-11-21T00:31:24.467Z,766.29
2018-11-21T00:31:28.773Z,766.29
2018-11-21T00:31:33.081Z,766.29
2018-11-21T00:31:37.395Z,766.27
2018-11-21T00:31:41.704Z,766.28
2018-11-21T00:31:46.010Z,766.28
2018-11-21T00:31:50.314Z,766.24
2018-11-21T00:31:54.614Z,766.28
2018-11-21T00:31:58.922Z,766.29
2018-11-21T00:32:03.134Z,766.31
2018-11-21T00:32:07.460Z,766.28
2018-11-21T00:32:11.762Z,766.24
2018-11-21T00:32:16.068Z,766.26
2018-11-21T00:32:20.374Z,766.26
2018-11-21T00:32:24.674Z,766.26
2018-11-21T00:32:28.978Z,766.26
2018-11-21T00:32:33.283Z,766.25
2018-11-21T00:32:37.584Z,766.29
2018-11-21T00:32:41.891Z,766.28
2018-11-21T00:32:46.206Z,766.3
2018-11-21T00:32:50.515Z,766.31
2018-11-21T00:32:54.812Z,766.25
2018-11-21T00:32:59.122Z,766.27
2018-11-21T00:33:03.421Z,766.26
2018-11-21T00:33:07.730Z,766.25
2018-11-21T00:33:12.032Z,766.28
2018-11-21T00:33:16.341Z,766.25
2018-11-21T00:33:20.648Z,766.28
2018-11-21T00:33:24.959Z,766.26
2018-11-21T00:33:29.277Z,766.27
2018-11-21T00:33:33.588Z,766.23
2018-11-21T00:33:37.904Z,766.26
2018-11-21T00:33:42.213Z,766.26
2018-11-21T00:33:46.538Z,766.26
2018-11-21T00:33:50.846Z,766.25
2018-11-21T00:33:55.170Z,766.3
2018-11-21T00:33:59.476Z,766.24
2018-11-21T00:34:03.786Z,766.29
2018-11-21T00:34:08.105Z,766.2
2018-11-21T00:34:12.413Z,766.22
2018-11-21T00:34:16.723Z,766.21
2018-11-21T00:34:21.026Z,766.27
2018-11-21T00:34:25.330Z,766.28
2018-11-21T00:34:29.640Z,766.27
2018-11-21T00:34:33.947Z,766.26
2018-11-21T00:34:38.269Z,766.24
2018-11-21T00:34:42.574Z,766.23
2018-11-21T00:34:46.880Z,766.23
2018-11-21T00:34:51.185Z,766.25
2018-11-21T00:34:55.500Z,766.24
2018-11-21T00:34:59.807Z,766.24
2018-11-21T00:35:04.194Z,766.21
2018-11-21T00:35:08.500Z,766.27
2018-11-21T00:35:12.808Z,766.27
2018-11-21T00:35:17.117Z,766.23
2018-11-21T00:35:21.421Z,766.24
2018-11-21T00:35:25.729Z,766.24
2018-11-21T00:35:30.038Z,766.24
2018-11-21T00:35:34.338Z,766.27
2018-11-21T00:35:38.646Z,766.24
2018-11-21T00:35:42.947Z,766.27
2018-11-21T00:35:47.253Z,766.28
2018-11-21T00:35:51.551Z,766.29
2018-11-21T00:35:55.855Z,766.26
2018-11-21T00:36:00.157Z,766.28
2018-11-21T00:36:04.365Z,766.26
2018-11-21T00:36:08.672Z,766.23
2018-11-21T00:36:12.975Z,766.25
2018-11-21T00:36:17.191Z,766.23
2018-11-21T00:36:21.515Z,766.26
2018-11-21T00:36:25.825Z,766.23
2018-11-21T00:36:30.129Z,766.25
2018-11-21T00:36:34.429Z,766.26
2018-11-21T00:36:38.745Z,766.23
2018-11-21T00:36:42.956Z,766.25
2018-11-21T00:36:47.261Z,766.24
2018-11-21T00:36:51.567Z,766.23
2018-11-21T00:36:55.873Z,766.22
2018-11-21T00:37:00.186Z,766.24
2018-11-21T00:37:04.494Z,766.23
2018-11-21T00:37:08.796Z,766.2
2018-11-21T00:37:13.109Z,766.22
2018-11-21T00:37:17.418Z,766.17
2018-11-21T00:37:21.731Z,766.2
2018-11-21T00:37:26.091Z,766.23
2018-11-21T00:37:30.400Z,766.26
2018-11-21T00:37:34.711Z,766.28
2018-11-21T00:37:39.016Z,766.3
2018-11-21T00:37:43.324Z,766.27
2018-11-21T00:37:47.638Z,766.27
2018-11-21T00:37:51.833Z,766.31
2018-11-21T00:37:56.032Z,766.32
2018-11-21T00:38:00.354Z,766.32
2018-11-21T00:38:04.807Z,766.36
2018-11-21T00:38:09.110Z,766.35
2018-11-21T00:38:13.317Z,766.37
2018-11-21T00:38:17.632Z,766.36
2018-11-21T00:38:21.934Z,766.35
2018-11-21T00:38:26.238Z,766.32
2018-11-21T00:38:30.543Z,766.34
2018-11-21T00:38:34.847Z,766.39
2018-11-21T00:38:39.155Z,766.4
2018-11-21T00:38:43.461Z,766.36
2018-11-21T00:38:47.779Z,766.36
2018-11-21T00:38:52.081Z,766.38
2018-11-21T00:38:56.390Z,766.37
2018-11-21T00:39:00.694Z,766.38
2018-11-21T00:39:05.007Z,766.39
2018-11-21T00:39:09.322Z,766.41
2018-11-21T00:39:13.630Z,766.44
2018-11-21T00:39:17.844Z,766.42
2018-11-21T00:39:22.149Z,766.45
2018-11-21T00:39:26.456Z,766.47
2018-11-21T00:39:30.757Z,766.46
2018-11-21T00:39:35.063Z,766.49
2018-11-21T00:39:39.371Z,766.45
2018-11-21T00:39:43.680Z,766.51
2018-11-21T00:39:47.981Z,766.47
2018-11-21T00:39:52.298Z,766.52
2018-11-21T00:39:56.617Z,766.51
2018-11-21T00:40:00.918Z,766.55
2018-11-21T00:40:05.238Z,766.54
2018-11-21T00:40:09.562Z,766.54
2018-11-21T00:40:13.877Z,766.55
2018-11-21T00:40:18.088Z,766.55
2018-11-21T00:40:22.397Z,766.59
2018-11-21T00:40:26.712Z,766.6
2018-11-21T00:40:31.043Z,766.63
2018-11-21T00:40:35.351Z,766.6
2018-11-21T00:40:39.663Z,766.61
2018-11-21T00:40:43.966Z,766.63
2018-11-21T00:40:48.302Z,766.61
2018-11-21T00:40:52.608Z,766.64
2018-11-21T00:40:56.916Z,766.61
2018-11-21T00:41:01.220Z,766.63
2018-11-21T00:41:05.591Z,766.65
2018-11-21T00:41:09.900Z,766.64
2018-11-21T00:41:14.212Z,766.63
2018-11-21T00:41:18.512Z,766.66
2018-11-21T00:41:22.816Z,766.68
2018-11-21T00:41:27.123Z,766.7
2018-11-21T00:41:31.439Z,766.7
2018-11-21T00:41:35.742Z,766.77
2018-11-21T00:41:40.053Z,766.75
2018-11-21T00:41:44.365Z,766.77
2018-11-21T00:41:48.664Z,766.79
2018-11-21T00:41:52.974Z,766.8
2018-11-21T00:41:57.282Z,766.8
2018-11-21T00:42:01.590Z,766.82
2018-11-21T00:42:05.905Z,766.82
2018-11-21T00:42:10.210Z,766.81
2018-11-21T00:42:14.516Z,766.82
2018-11-21T00:42:18.817Z,766.82
2018-11-21T00:42:23.123Z,766.85
2018-11-21T00:42:27.317Z,766.84
2018-11-21T00:42:31.624Z,766.82
2018-11-21T00:42:35.942Z,766.89
2018-11-21T00:42:47.373Z,766.91
2018-11-21T00:42:51.677Z,766.92
2018-11-21T00:42:55.979Z,766.9
2018-11-21T00:43:00.289Z,766.93
2018-11-21T00:43:04.600Z,766.96
2018-11-21T00:43:08.914Z,766.95
2018-11-21T00:43:13.217Z,767.01
2018-11-21T00:43:17.524Z,766.98
2018-11-21T00:43:21.833Z,767
2018-11-21T00:43:26.161Z,767.01
2018-11-21T00:43:30.469Z,767.01
2018-11-21T00:43:34.773Z,766.98
2018-11-21T00:43:39.075Z,766.94
2018-11-21T00:43:43.382Z,767.01
2018-11-21T00:43:47.693Z,767.05
2018-11-21T00:43:52.003Z,767.02
2018-11-21T00:43:56.311Z,767.07
2018-11-21T00:44:00.622Z,767.08
2018-11-21T00:44:04.939Z,767.12
2018-11-21T00:44:09.246Z,767.08
2018-11-21T00:44:13.568Z,767.13
2018-11-21T00:44:17.885Z,767.14
2018-11-21T00:44:22.203Z,767.09
2018-11-21T00:44:26.504Z,767.1
2018-11-21T00:44:30.808Z,767.12
2018-11-21T00:44:35.117Z,767.11
2018-11-21T00:44:39.440Z,767.15
2018-11-21T00:44:43.753Z,767.15
2018-11-21T00:44:48.062Z,767.16
2018-11-21T00:44:52.370Z,767.16
2018-11-21T00:44:56.674Z,767.18
2018-11-21T00:45:00.978Z,767.21
2018-11-21T00:45:05.301Z,767.2
2018-11-21T00:45:09.674Z,767.2
2018-11-21T00:45:13.994Z,767.13
2018-11-21T00:45:18.302Z,767.17
2018-11-21T00:45:22.614Z,767.17
2018-11-21T00:45:26.926Z,767.22
2018-11-21T00:45:31.123Z,767.23
2018-11-21T00:45:35.323Z,767.2
2018-11-21T00:45:39.626Z,767.23
2018-11-21T00:45:43.928Z,767.2
2018-11-21T00:45:48.250Z,767.25
2018-11-21T00:45:52.561Z,767.24
2018-11-21T00:45:56.880Z,767.21
2018-11-21T00:46:01.184Z,767.23
2018-11-21T00:46:05.505Z,767.25
2018-11-21T00:46:09.809Z,767.21
2018-11-21T00:46:14.121Z,767.24
2018-11-21T00:46:18.323Z,767.2
2018-11-21T00:46:22.633Z,767.24
2018-11-21T00:46:26.934Z,767.24
2018-11-21T00:46:31.231Z,767.22
2018-11-21T00:46:35.551Z,767.21
2018-11-21T00:46:39.857Z,767.2
2018-11-21T00:46:44.164Z,767.21
2018-11-21T00:46:48.462Z,767.19
2018-11-21T00:46:52.771Z,767.19
2018-11-21T00:46:57.073Z,767.18
2018-11-21T00:47:01.386Z,767.25
2018-11-21T00:47:05.693Z,767.26
2018-11-21T00:47:09.994Z,767.26
2018-11-21T00:47:14.303Z,767.27
2018-11-21T00:47:18.612Z,767.26
2018-11-21T00:47:22.971Z,767.26
2018-11-21T00:47:27.280Z,767.26
2018-11-21T00:47:31.583Z,767.27
2018-11-21T00:47:35.886Z,767.25
2018-11-21T00:47:40.088Z,767.27
2018-11-21T00:47:44.402Z,767.27
2018-11-21T00:47:48.712Z,767.29
2018-11-21T00:47:53.016Z,767.28
2018-11-21T00:47:57.323Z,767.32
2018-11-21T00:48:01.630Z,767.3
2018-11-21T00:48:05.931Z,767.29
2018-11-21T00:48:10.245Z,767.32
2018-11-21T00:48:14.559Z,767.33
2018-11-21T00:48:18.865Z,767.32
2018-11-21T00:48:23.176Z,767.32
2018-11-21T00:48:27.482Z,767.33
2018-11-21T00:48:31.678Z,767.29
2018-11-21T00:48:35.990Z,767.28
2018-11-21T00:48:40.304Z,767.36
2018-11-21T00:48:44.617Z,767.34
2018-11-21T00:48:48.928Z,767.37
2018-11-21T00:48:53.231Z,767.34
2018-11-21T00:48:57.543Z,767.33
2018-11-21T00:49:01.842Z,767.37
2018-11-21T00:49:06.152Z,767.38
2018-11-21T00:49:10.454Z,767.37
2018-11-21T00:49:14.757Z,767.38
2018-11-21T00:49:19.071Z,767.39
2018-11-21T00:49:23.376Z,767.44
2018-11-21T00:49:27.680Z,767.4
2018-11-21T00:49:31.984Z,767.36
2018-11-21T00:49:36.297Z,767.4
2018-11-21T00:49:40.614Z,767.4
2018-11-21T00:49:44.920Z,767.45
2018-11-21T00:49:49.229Z,767.43
2018-11-21T00:49:53.536Z,767.4
2018-11-21T00:49:57.848Z,767.41
2018-11-21T00:50:02.258Z,767.39
2018-11-21T00:50:06.473Z,767.49
2018-11-21T00:50:11.255Z,767.51
2018-11-21T00:50:15.964Z,767.49
2018-11-21T00:50:20.286Z,767.51
2018-11-21T00:50:24.597Z,767.5
2018-11-21T00:50:28.907Z,767.53
2018-11-21T00:50:33.212Z,767.5
2018-11-21T00:50:37.519Z,767.53
2018-11-21T00:50:41.874Z,767.54
2018-11-21T00:50:46.188Z,767.5
2018-11-21T00:50:50.491Z,767.52
2018-11-21T00:50:54.847Z,767.56
2018-11-21T00:50:59.152Z,767.56
2018-11-21T00:51:03.610Z,767.55
2018-11-21T00:51:07.922Z,767.56
2018-11-21T00:51:12.244Z,767.59
2018-11-21T00:51:17.261Z,767.54
2018-11-21T00:51:21.576Z,767.56
2018-11-21T00:51:25.882Z,767.56
2018-11-21T00:51:30.192Z,767.55
2018-11-21T00:51:34.508Z,767.57
2018-11-21T00:51:38.842Z,767.59
2018-11-21T00:51:43.185Z,767.59
2018-11-21T00:51:47.497Z,767.57
2018-11-21T00:51:51.805Z,767.55
2018-11-21T00:51:56.110Z,767.58
2018-11-21T00:52:00.316Z,767.58
2018-11-21T00:52:04.641Z,767.57
2018-11-21T00:52:08.946Z,767.59
2018-11-21T00:52:13.259Z,767.6
2018-11-21T00:52:17.567Z,767.59
2018-11-21T00:52:21.877Z,767.58
2018-11-21T00:52:26.185Z,767.58
2018-11-21T00:52:30.493Z,767.62
2018-11-21T00:52:34.806Z,767.62
2018-11-21T00:52:39.121Z,767.59
2018-11-21T00:52:43.434Z,767.58
2018-11-21T00:52:47.745Z,767.61
2018-11-21T00:52:52.048Z,767.6
2018-11-21T00:52:56.353Z,767.6
2018-11-21T00:53:00.666Z,767.6
2018-11-21T00:53:04.995Z,767.63
2018-11-21T00:53:09.298Z,767.6
2018-11-21T00:53:13.600Z,767.64
2018-11-21T00:53:17.914Z,767.64
2018-11-21T00:53:22.222Z,767.58
2018-11-21T00:53:26.422Z,767.6
2018-11-21T00:53:30.728Z,767.63
2018-11-21T00:53:35.044Z,767.6
2018-11-21T00:53:39.357Z,767.61
2018-11-21T00:53:43.668Z,767.63
2018-11-21T00:53:47.975Z,767.68
2018-11-21T00:53:52.282Z,767.65
2018-11-21T00:53:56.592Z,767.65
2018-11-21T00:54:00.994Z,767.66
2018-11-21T00:54:05.311Z,767.69
2018-11-21T00:54:09.859Z,767.7